Terminal Aerodrome Forecast
Issued by NWS

Home | Current Version | Previous Version | Text Only | Print | Product List | Glossary On
Versions: 1 2 3 4 5 6 7 8 9 10 11 12 13 14 15 16 17 18 19 20 21
000
FTUS43 KMKX 241555 AAC
TAFENW
TAF AMD
KENW 241555Z 2416/2512 22009KT P6SM FEW015 BKN040 BKN100
      TEMPO 2416/2418 BKN010
     FM241800 22010G19KT P6SM SCT015 BKN025
      TEMPO 2418/2419 BKN010
     FM242000 22010G19KT P6SM BKN035 BKN070
     FM250200 23006KT P6SM BKN040
     FM250400 23005KT 5SM BR VCTS BKN040CB=

USA.gov is the U.S. government's official web portal to all federal, state and local government web resources and services.